createdAt,value
2023-12-15T00:02:30.903Z,97734.05
2023-12-15T00:05:03.063Z,97735.38
2023-12-15T00:07:35.483Z,97741.13
2023-12-15T00:10:09.213Z,97742.48
2023-12-15T00:12:41.240Z,97746.58
2023-12-15T00:15:14.151Z,97747.42
2023-12-15T00:17:46.448Z,97751.31
2023-12-15T00:20:22.575Z,97754.20
2023-12-15T00:22:56.275Z,97759.12
2023-12-15T00:25:28.450Z,97761.32
2023-12-15T00:28:01.595Z,97765.89
2023-12-15T00:30:33.889Z,97772.34
2023-12-15T00:33:06.040Z,97774.69
2023-12-15T00:35:38.111Z,97774.73
2023-12-15T00:38:09.962Z,97779.30
2023-12-15T00:40:43.384Z,97788.88
2023-12-15T00:43:15.705Z,97792.41
2023-12-15T00:45:47.926Z,97797.23
2023-12-15T00:48:20.316Z,97805.37
2023-12-15T00:50:52.540Z,97814.05
2023-12-15T00:53:24.479Z,97813.15
2023-12-15T00:55:56.697Z,97814.71
2023-12-15T00:58:28.816Z,97823.73
2023-12-15T01:01:00.933Z,97831.04
2023-12-15T01:03:35.052Z,97836.15
2023-12-15T01:06:07.800Z,97839.52
2023-12-15T01:08:39.966Z,97845.64
2023-12-15T01:11:12.016Z,97848.70
2023-12-15T01:13:44.693Z,97846.98
2023-12-15T01:16:16.993Z,97849.02
2023-12-15T01:18:49.092Z,97857.00
2023-12-15T01:21:21.178Z,97857.45
2023-12-15T01:24:00.458Z,97869.85
2023-12-15T01:26:34.392Z,97875.10
2023-12-15T01:29:06.805Z,97876.33
2023-12-15T01:31:38.910Z,97877.69
2023-12-15T01:34:11.103Z,97879.88
2023-12-15T01:36:43.908Z,97883.91
2023-12-15T01:39:15.776Z,97880.25
2023-12-15T01:41:47.757Z,97883.30
2023-12-15T01:44:19.690Z,97884.31
2023-12-15T01:46:52.716Z,97885.61
2023-12-15T01:49:24.933Z,97891.40
2023-12-15T01:51:57.355Z,97897.70
2023-12-15T01:54:29.590Z,97897.73
2023-12-15T01:57:01.546Z,97899.11
2023-12-15T01:59:45.480Z,97902.38
2023-12-15T02:02:17.817Z,97902.23
2023-12-15T02:04:51.395Z,97901.70
2023-12-15T02:07:23.612Z,97903.26
2023-12-15T02:09:55.968Z,97908.20
2023-12-15T02:12:28.393Z,97914.14
2023-12-15T02:15:00.714Z,97918.35
2023-12-15T02:17:32.769Z,97924.46
2023-12-15T02:20:04.807Z,97933.65
2023-12-15T02:22:36.696Z,97939.06
2023-12-15T02:25:09.573Z,97946.95
2023-12-15T02:27:42.643Z,97953.18
2023-12-15T02:30:14.770Z,97955.36
2023-12-15T02:32:46.885Z,97961.94
2023-12-15T02:35:20.748Z,97966.14
2023-12-15T02:37:51.086Z,97966.60
2023-12-15T02:40:23.153Z,97972.35
2023-12-15T02:42:55.276Z,97974.88
2023-12-15T02:45:27.731Z,97976.08
2023-12-15T02:47:59.981Z,97984.71
2023-12-15T02:50:32.217Z,97988.31
2023-12-15T02:53:04.486Z,97995.79
2023-12-15T02:55:36.556Z,97998.48
2023-12-15T02:58:08.983Z,98004.23
2023-12-15T03:00:41.106Z,98014.09
2023-12-15T03:03:13.247Z,98014.52
2023-12-15T03:05:45.562Z,98021.95
2023-12-15T03:08:17.829Z,98025.34
2023-12-15T03:10:49.967Z,98028.52
2023-12-15T03:13:22.070Z,98034.21
2023-12-15T03:15:54.111Z,98038.08
2023-12-15T03:18:26.156Z,98044.04
2023-12-15T03:20:58.221Z,98050.95
2023-12-15T03:23:31.964Z,98049.03
2023-12-15T03:26:04.233Z,98050.17
2023-12-15T03:28:36.578Z,98054.94
2023-12-15T03:31:09.315Z,98058.14
2023-12-15T03:33:41.328Z,98060.20
2023-12-15T03:36:13.796Z,98063.23
2023-12-15T03:38:46.001Z,98067.65
2023-12-15T03:41:18.283Z,98069.67
2023-12-15T03:43:52.327Z,98072.04
2023-12-15T03:46:24.306Z,98078.86
2023-12-15T03:48:56.454Z,98085.60
2023-12-15T03:51:28.411Z,98093.40
2023-12-15T03:54:01.074Z,98096.80
2023-12-15T03:56:33.272Z,98099.00
2023-12-15T03:59:05.304Z,98101.05
2023-12-15T04:01:37.446Z,98104.42
2023-12-15T04:04:09.584Z,98105.48
2023-12-15T04:06:41.737Z,98111.70
2023-12-15T04:09:14.283Z,98116.67
2023-12-15T04:11:47.860Z,98121.66
2023-12-15T04:14:20.818Z,98125.85
2023-12-15T04:16:52.772Z,98130.41
2023-12-15T04:19:24.967Z,98133.59
2023-12-15T04:21:57.211Z,98142.73
2023-12-15T04:24:29.288Z,98145.48
2023-12-15T04:27:01.547Z,98152.81
2023-12-15T04:29:34.055Z,98157.56
2023-12-15T04:32:06.505Z,98162.46
2023-12-15T04:34:38.976Z,98167.89
2023-12-15T04:37:13.218Z,98174.15
2023-12-15T04:39:48.188Z,98174.11
2023-12-15T04:42:20.039Z,98179.00
2023-12-15T04:44:51.950Z,98185.75
2023-12-15T04:47:23.861Z,98188.34
2023-12-15T04:49:56.274Z,98195.13
2023-12-15T04:52:28.249Z,98200.89
2023-12-15T04:55:00.405Z,98205.21
2023-12-15T04:57:32.444Z,98205.51
2023-12-15T05:00:05.535Z,98214.13
2023-12-15T05:02:37.664Z,98217.74
2023-12-15T05:05:10.690Z,98217.58
2023-12-15T05:07:43.200Z,98223.67
2023-12-15T05:10:15.170Z,98229.66
2023-12-15T05:12:47.359Z,98240.56
2023-12-15T05:15:19.393Z,98245.95
2023-12-15T05:17:52.605Z,98250.05
2023-12-15T05:20:24.955Z,98258.16
2023-12-15T05:22:57.642Z,98263.81
2023-12-15T05:25:29.832Z,98265.16
2023-12-15T05:28:02.396Z,98268.92
2023-12-15T05:30:34.428Z,98276.92
2023-12-15T05:33:07.835Z,98285.86
2023-12-15T05:35:40.448Z,98286.59
2023-12-15T05:38:12.555Z,98290.95
2023-12-15T05:40:44.746Z,98297.75
2023-12-15T05:43:17.537Z,98304.88
2023-12-15T05:45:51.275Z,98303.75
2023-12-15T05:48:24.079Z,98312.23
2023-12-15T05:50:56.085Z,98314.11
2023-12-15T05:53:28.121Z,98318.55
2023-12-15T05:56:00.982Z,98324.10
2023-12-15T05:58:33.416Z,98327.84
2023-12-15T06:01:05.727Z,98334.70
2023-12-15T06:03:37.967Z,98332.30
2023-12-15T06:06:14.545Z,98336.05
2023-12-15T06:08:46.855Z,98343.89
2023-12-15T06:11:19.216Z,98352.09
2023-12-15T06:13:51.356Z,98356.21
2023-12-15T06:16:24.590Z,98360.02
2023-12-15T06:18:56.783Z,98357.96
2023-12-15T06:21:29.636Z,98363.27
2023-12-15T06:24:01.492Z,98366.70
2023-12-15T06:26:33.646Z,98374.46
2023-12-15T06:29:06.160Z,98388.42
2023-12-15T06:31:38.487Z,98397.27
2023-12-15T06:34:10.592Z,98394.40
2023-12-15T06:36:43.653Z,98398.46
2023-12-15T06:39:16.678Z,98404.36
2023-12-15T06:41:49.405Z,98407.30
2023-12-15T06:44:21.903Z,98412.44
2023-12-15T06:46:53.887Z,98413.02
2023-12-15T06:49:32.148Z,98420.70
2023-12-15T06:52:05.250Z,98423.91
2023-12-15T06:54:40.137Z,98430.77
2023-12-15T06:57:12.512Z,98434.33
2023-12-15T06:59:44.687Z,98439.27
2023-12-15T07:02:16.691Z,98442.90
2023-12-15T07:04:52.145Z,98436.63
2023-12-15T07:07:24.325Z,98441.10
2023-12-15T07:09:56.656Z,98444.38
2023-12-15T07:12:28.607Z,98443.91
2023-12-15T07:15:00.893Z,98452.11
2023-12-15T07:17:32.980Z,98448.88
2023-12-15T07:20:05.705Z,98450.41
2023-12-15T07:22:37.735Z,98462.04
2023-12-15T07:25:10.931Z,98496.27
2023-12-15T07:27:43.561Z,98477.71
2023-12-15T07:30:16.702Z,98487.34
2023-12-15T07:32:49.085Z,98507.09
2023-12-15T07:35:29.493Z,98494.25
2023-12-15T07:38:04.848Z,98515.77
2023-12-15T07:40:37.151Z,98512.64
2023-12-15T07:43:09.511Z,98517.76
2023-12-15T07:45:41.699Z,98521.89
2023-12-15T07:48:14.925Z,98518.29
2023-12-15T07:50:49.819Z,98524.51
2023-12-15T07:53:22.546Z,98531.52
2023-12-15T07:55:55.531Z,98537.65
2023-12-15T07:58:28.036Z,98546.40
2023-12-15T08:01:00.712Z,98548.98
2023-12-15T08:03:33.027Z,98543.73
2023-12-15T08:06:06.159Z,98539.56
2023-12-15T08:08:40.567Z,98538.79
2023-12-15T08:11:13.212Z,98548.13
2023-12-15T08:13:45.568Z,98549.23
2023-12-15T08:16:17.747Z,98554.39
2023-12-15T08:18:49.836Z,98556.45
2023-12-15T08:21:21.845Z,98562.71
2023-12-15T08:26:55.304Z,98568.64
2023-12-15T08:29:28.116Z,98571.30
2023-12-15T08:32:00.275Z,98571.73
2023-12-15T08:34:33.633Z,98573.61
2023-12-15T08:37:06.169Z,98574.21
2023-12-15T08:39:38.299Z,98571.45
2023-12-15T08:42:10.498Z,98574.52
2023-12-15T08:44:45.588Z,98582.58
2023-12-15T08:47:17.886Z,98584.33
2023-12-15T08:49:50.175Z,98588.36
2023-12-15T08:52:22.459Z,98591.54
2023-12-15T08:54:54.599Z,98599.30
2023-12-15T08:57:27.278Z,98604.80
2023-12-15T09:00:00.387Z,98604.13
2023-12-15T09:02:33.195Z,98605.95
2023-12-15T09:05:13.955Z,98608.42
2023-12-15T09:07:57.545Z,98610.03
2023-12-15T09:10:34.994Z,98615.05
2023-12-15T09:13:08.344Z,98619.09
2023-12-15T09:15:40.660Z,98619.42
2023-12-15T09:18:13.508Z,98623.48
2023-12-15T09:20:46.812Z,98621.73
2023-12-15T09:23:21.237Z,98629.77
2023-12-15T09:25:55.053Z,98627.25
2023-12-15T09:28:27.698Z,98633.02
2023-12-15T09:31:00.442Z,98636.95
2023-12-15T09:33:33.062Z,98635.70
2023-12-15T09:36:06.393Z,98639.35
2023-12-15T09:38:38.650Z,98641.05
2023-12-15T09:41:11.480Z,98646.17
2023-12-15T09:43:43.880Z,98649.13
2023-12-15T09:46:16.418Z,98651.98
2023-12-15T09:48:49.624Z,98651.96
2023-12-15T09:51:25.827Z,98651.63
2023-12-15T09:53:58.168Z,98649.13
2023-12-15T09:56:30.785Z,98648.41
2023-12-15T09:59:02.955Z,98649.72
2023-12-15T10:01:35.348Z,98649.60
2023-12-15T10:04:07.685Z,98652.84
2023-12-15T10:06:41.350Z,98650.84
2023-12-15T10:09:14.821Z,98649.96
2023-12-15T10:11:48.267Z,98646.52
2023-12-15T10:14:21.180Z,98649.14
2023-12-15T10:16:53.826Z,98649.64
2023-12-15T10:19:28.578Z,98646.38
2023-12-15T10:22:00.701Z,98647.41
2023-12-15T10:24:35.647Z,98648.21
2023-12-15T10:27:10.244Z,98649.73
2023-12-15T10:29:42.964Z,98648.77
2023-12-15T10:32:15.757Z,98653.56
2023-12-15T10:34:48.066Z,98655.28
2023-12-15T10:37:21.092Z,98658.89
2023-12-15T10:39:53.246Z,98664.52
2023-12-15T10:42:26.794Z,98666.25
2023-12-15T10:45:00.384Z,98664.83
2023-12-15T10:47:34.682Z,98663.76
2023-12-15T10:50:09.139Z,98670.18
2023-12-15T10:52:42.241Z,98667.64
2023-12-15T10:55:16.622Z,98667.16
2023-12-15T10:57:50.085Z,98669.58
2023-12-15T11:00:22.793Z,98667.20
2023-12-15T11:02:56.764Z,98668.55
2023-12-15T11:05:35.837Z,98676.69
2023-12-15T11:08:11.575Z,98671.20
2023-12-15T11:10:43.663Z,98677.16
2023-12-15T11:13:48.596Z,98677.48
2023-12-15T11:16:24.870Z,98678.97
2023-12-15T11:18:59.402Z,98675.02
2023-12-15T11:21:32.391Z,98679.59
2023-12-15T11:24:06.597Z,98681.70
2023-12-15T11:26:40.083Z,98681.95
2023-12-15T11:29:14.672Z,98683.66
2023-12-15T11:31:47.281Z,98686.12
2023-12-15T11:34:43.753Z,98686.81
2023-12-15T11:37:16.041Z,98690.41
2023-12-15T11:39:51.690Z,98690.14
2023-12-15T11:42:24.484Z,98688.03
2023-12-15T11:44:56.653Z,98687.88
2023-12-15T11:47:28.897Z,98691.92
2023-12-15T11:50:05.571Z,98692.35
2023-12-15T11:52:41.676Z,98696.91
2023-12-15T11:55:17.045Z,98696.19
2023-12-15T11:57:49.275Z,98694.16
2023-12-15T12:00:22.435Z,98698.34
2023-12-15T12:02:55.026Z,98694.13
2023-12-15T12:05:27.252Z,98694.84
2023-12-15T12:08:00.384Z,98695.98
2023-12-15T12:10:35.837Z,98693.50
2023-12-15T12:13:12.548Z,98695.98
2023-12-15T12:15:55.226Z,98697.94
2023-12-15T12:18:28.525Z,98699.86
2023-12-15T12:21:04.304Z,98698.64
2023-12-15T12:23:43.380Z,98700.61
2023-12-15T12:26:18.240Z,98706.66
2023-12-15T12:28:52.662Z,98708.39
2023-12-15T12:31:25.819Z,98710.70
2023-12-15T12:33:58.390Z,98715.11
2023-12-15T12:36:30.816Z,98714.48
2023-12-15T12:39:04.324Z,98719.35
2023-12-15T12:41:36.818Z,98725.98
2023-12-15T12:44:09.964Z,98725.40
2023-12-15T12:46:42.507Z,98727.71
2023-12-15T12:49:15.431Z,98729.58
2023-12-15T12:51:52.114Z,98734.52
2023-12-15T12:54:24.047Z,98737.80
2023-12-15T12:57:00.484Z,98739.20
2023-12-15T12:59:33.253Z,98739.40
2023-12-15T13:02:11.800Z,98742.65
2023-12-15T13:04:51.445Z,98749.25
2023-12-15T13:07:23.633Z,98754.37
2023-12-15T13:09:55.630Z,98761.99
2023-12-15T13:12:29.424Z,98765.56
2023-12-15T13:15:01.374Z,98763.27
2023-12-15T13:17:33.784Z,98765.88
2023-12-15T13:20:06.481Z,98768.58
2023-12-15T13:22:47.278Z,98767.48
2023-12-15T13:25:20.974Z,98765.38
2023-12-15T13:27:53.629Z,98767.93
2023-12-15T13:30:28.423Z,98769.52
2023-12-15T13:33:00.778Z,98772.20
2023-12-15T13:35:35.687Z,98774.23
2023-12-15T13:38:08.159Z,98772.75
2023-12-15T13:40:40.316Z,98774.13
2023-12-15T13:43:12.618Z,98773.14
2023-12-15T13:45:50.656Z,98769.89
2023-12-15T13:48:26.424Z,98774.10
2023-12-15T13:50:58.841Z,98778.58
2023-12-15T13:53:31.356Z,98783.33
2023-12-15T13:56:03.750Z,98780.42
2023-12-15T13:58:36.628Z,98789.50
2023-12-15T14:01:08.916Z,98786.39
2023-12-15T14:03:41.148Z,98787.20
2023-12-15T14:06:13.804Z,98787.42
2023-12-15T14:08:47.805Z,98786.08
2023-12-15T14:11:20.030Z,98796.88
2023-12-15T14:13:52.474Z,98801.31
2023-12-15T14:16:37.696Z,98809.33
2023-12-15T14:19:18.712Z,98811.67
2023-12-15T14:21:52.455Z,98806.27
2023-12-15T14:24:25.135Z,98809.83
2023-12-15T14:26:58.548Z,98811.34
2023-12-15T14:29:32.104Z,98812.40
2023-12-15T14:32:05.359Z,98815.31
2023-12-15T14:34:37.666Z,98818.67
2023-12-15T14:37:09.819Z,98821.00
2023-12-15T14:39:41.908Z,98823.38
2023-12-15T14:42:16.764Z,98822.17
2023-12-15T14:44:49.305Z,98825.96
2023-12-15T14:47:24.253Z,98823.34
2023-12-15T14:49:56.233Z,98826.34
2023-12-15T14:52:29.968Z,98826.31
2023-12-15T14:55:03.361Z,98826.21
2023-12-15T14:57:37.336Z,98829.63
2023-12-15T15:00:11.306Z,98829.06
2023-12-15T15:02:44.253Z,98833.12
2023-12-15T15:05:17.079Z,98838.14
2023-12-15T15:07:49.136Z,98839.91
2023-12-15T15:10:21.346Z,98845.48
2023-12-15T15:12:53.660Z,98844.58
2023-12-15T15:15:26.076Z,98841.50
2023-12-15T15:17:58.306Z,98837.79
2023-12-15T15:20:30.781Z,98843.95
2023-12-15T15:23:02.932Z,98852.20
2023-12-15T15:25:35.869Z,98856.71
2023-12-15T15:28:09.768Z,98865.27
2023-12-15T15:30:44.033Z,98869.83
2023-12-15T15:33:16.449Z,98868.19
2023-12-15T15:35:48.738Z,98872.59
2023-12-15T15:38:20.828Z,98870.81
2023-12-15T15:40:53.486Z,98871.30
2023-12-15T15:43:26.014Z,98872.45
2023-12-15T15:45:58.461Z,98875.45
2023-12-15T15:48:32.079Z,98872.23
2023-12-15T15:51:04.329Z,98876.86
2023-12-15T15:53:36.688Z,98877.13
2023-12-15T15:56:12.435Z,98880.63
2023-12-15T15:58:44.624Z,98883.10
2023-12-15T16:01:32.799Z,98886.60
2023-12-15T16:04:13.216Z,98884.33
2023-12-15T16:06:45.487Z,98887.94
2023-12-15T16:09:18.296Z,98893.17
2023-12-15T16:11:50.807Z,98897.34
2023-12-15T16:14:22.811Z,98898.94
2023-12-15T16:16:56.197Z,98902.45
2023-12-15T16:19:28.532Z,98904.02
2023-12-15T16:22:01.613Z,98906.23
2023-12-15T16:24:33.757Z,98905.14
2023-12-15T16:27:06.240Z,98903.40
2023-12-15T16:29:38.494Z,98911.73
2023-12-15T16:32:11.321Z,98910.30
2023-12-15T16:34:44.906Z,98913.69
2023-12-15T16:37:17.124Z,98915.66
2023-12-15T16:39:50.543Z,98921.29
2023-12-15T16:42:22.748Z,98925.15
2023-12-15T16:44:54.996Z,98932.30
2023-12-15T16:47:27.250Z,98936.89
2023-12-15T16:49:59.490Z,98940.63
2023-12-15T16:52:31.659Z,98945.49
2023-12-15T16:55:05.065Z,98947.42
2023-12-15T16:57:38.063Z,98950.25
2023-12-15T17:00:12.918Z,98946.98
2023-12-15T17:02:44.967Z,98953.80
2023-12-15T17:05:17.115Z,98960.46
2023-12-15T17:07:49.608Z,98958.20
2023-12-15T17:10:21.891Z,98963.63
2023-12-15T17:12:54.458Z,98965.85
2023-12-15T17:15:26.601Z,98961.89
2023-12-15T17:18:05.398Z,98968.63
2023-12-15T17:20:40.726Z,98974.77
2023-12-15T17:23:12.778Z,98970.12
2023-12-15T17:25:46.404Z,98975.96
2023-12-15T17:28:18.525Z,98977.94
2023-12-15T17:30:50.591Z,98979.19
2023-12-15T17:33:22.664Z,98970.41
2023-12-15T17:35:54.707Z,98970.13
2023-12-15T17:38:26.728Z,98965.14
2023-12-15T17:40:59.194Z,98969.24
2023-12-15T17:43:31.230Z,98970.76
2023-12-15T17:46:03.454Z,98967.61
2023-12-15T17:48:37.262Z,98963.72
2023-12-15T17:51:09.976Z,98964.65
2023-12-15T17:53:43.647Z,98964.47
2023-12-15T17:56:13.968Z,98968.95
2023-12-15T17:58:46.874Z,98958.42
2023-12-15T18:01:19.026Z,98958.11
2023-12-15T18:03:51.521Z,98960.36
2023-12-15T18:06:23.621Z,98964.38
2023-12-15T18:08:55.786Z,98970.39
2023-12-15T18:11:30.560Z,98971.10
2023-12-15T18:14:03.303Z,98966.11
2023-12-15T18:16:36.186Z,98962.52
2023-12-15T18:19:08.426Z,98957.92
2023-12-15T18:21:44.955Z,98955.14
2023-12-15T18:24:17.420Z,98955.87
2023-12-15T18:26:49.627Z,98956.61
2023-12-15T18:29:26.441Z,98962.98
2023-12-15T18:31:58.836Z,98960.59
2023-12-15T18:34:31.986Z,98962.15
2023-12-15T18:37:06.153Z,98961.73
2023-12-15T18:39:39.625Z,98961.61
2023-12-15T18:42:12.037Z,98967.08
2023-12-15T18:44:47.314Z,98978.81
2023-12-15T18:47:20.568Z,98979.62
2023-12-15T18:49:55.155Z,98979.84
2023-12-15T18:52:30.381Z,98983.14
2023-12-15T18:55:06.738Z,98986.81
2023-12-15T18:57:46.738Z,98994.73
2023-12-15T19:00:24.759Z,98996.80
2023-12-15T19:02:56.958Z,99001.27
2023-12-15T19:05:29.684Z,98999.20
2023-12-15T19:08:03.189Z,99005.75
2023-12-15T19:10:35.204Z,99016.45
2023-12-15T19:13:07.661Z,99022.13
2023-12-15T19:15:40.008Z,99018.52
2023-12-15T19:18:12.450Z,99013.08
2023-12-15T19:20:51.164Z,99010.17
2023-12-15T19:23:25.053Z,99011.44
2023-12-15T19:25:59.539Z,99018.27
2023-12-15T19:28:34.167Z,99025.11
2023-12-15T19:31:06.915Z,99023.66
2023-12-15T19:33:41.008Z,99023.23
2023-12-15T19:36:14.839Z,99023.73
2023-12-15T19:38:46.729Z,99026.19
2023-12-15T19:41:24.377Z,99033.24
2023-12-15T19:43:56.887Z,99035.89
2023-12-15T19:46:33.483Z,99033.55
2023-12-15T19:49:05.855Z,99028.55
2023-12-15T19:51:38.828Z,99031.63
2023-12-15T19:54:19.689Z,99031.64
2023-12-15T19:56:53.842Z,99030.37
2023-12-15T19:59:27.409Z,99034.80
2023-12-15T20:02:04.827Z,99033.50
2023-12-15T20:04:38.000Z,99037.73
2023-12-15T20:07:10.387Z,99039.13
2023-12-15T20:09:43.433Z,99037.80
2023-12-15T20:12:16.429Z,99037.35
2023-12-15T20:14:48.730Z,99038.08
2023-12-15T20:17:24.187Z,99037.55
2023-12-15T20:19:57.407Z,99035.48
2023-12-15T20:22:31.285Z,99035.34
2023-12-15T20:25:08.104Z,99037.46
2023-12-15T20:27:44.360Z,99028.92
2023-12-15T20:30:18.565Z,99027.09
2023-12-15T20:32:51.142Z,99026.58
2023-12-15T20:35:23.873Z,99021.64
2023-12-15T20:37:57.018Z,99028.22
2023-12-15T20:40:29.914Z,99032.65
2023-12-15T20:43:02.090Z,99035.13
2023-12-15T20:45:34.217Z,99037.52
2023-12-15T20:48:06.578Z,99041.16
2023-12-15T20:50:39.700Z,99045.96
2023-12-15T20:53:13.657Z,99044.64
2023-12-15T20:55:46.296Z,99037.36
2023-12-15T20:58:18.731Z,99034.35
2023-12-15T21:00:51.191Z,99034.61
2023-12-15T21:03:24.601Z,99037.19
2023-12-15T21:05:56.736Z,99032.00
2023-12-15T21:08:29.684Z,99034.85
2023-12-15T21:11:01.733Z,99040.06
2023-12-15T21:13:33.809Z,99040.02
2023-12-15T21:16:07.698Z,99036.27
2023-12-15T21:18:40.457Z,99036.22
2023-12-15T21:21:12.612Z,99040.10
2023-12-15T21:23:44.559Z,99036.71
2023-12-15T21:26:17.443Z,99036.29
2023-12-15T21:28:49.586Z,99030.23
2023-12-15T21:31:22.052Z,99035.86
2023-12-15T21:33:54.449Z,99038.07
2023-12-15T21:36:26.708Z,99039.02
2023-12-15T21:38:58.773Z,99040.13
2023-12-15T21:41:41.676Z,99039.48
2023-12-15T21:44:14.096Z,99048.84
2023-12-15T21:46:47.166Z,99052.48
2023-12-15T21:49:20.382Z,99048.30
2023-12-15T21:51:52.843Z,99042.00
2023-12-15T21:54:25.092Z,99032.27
2023-12-15T21:56:57.214Z,99028.41
2023-12-15T21:59:29.837Z,99023.11
2023-12-15T22:02:02.078Z,99024.77
2023-12-15T22:04:34.377Z,99029.63
2023-12-15T22:07:07.927Z,99032.54
2023-12-15T22:09:40.656Z,99035.42
2023-12-15T22:12:16.547Z,99039.52
2023-12-15T22:14:49.406Z,99038.90
2023-12-15T22:17:21.481Z,99031.59
2023-12-15T22:19:53.877Z,99038.73
2023-12-15T22:22:26.116Z,99051.48
2023-12-15T22:24:58.379Z,99054.81
2023-12-15T22:27:30.395Z,99058.60
2023-12-15T22:30:04.644Z,99058.91
2023-12-15T22:32:36.811Z,99049.96
2023-12-15T22:35:09.859Z,99045.62
2023-12-15T22:37:42.197Z,99049.08
2023-12-15T22:40:15.370Z,99051.45
2023-12-15T22:42:47.917Z,99045.24
2023-12-15T22:45:20.637Z,99052.19
2023-12-15T22:47:52.890Z,99052.90
2023-12-15T22:50:25.320Z,99057.59
2023-12-15T22:52:57.385Z,99049.95
2023-12-15T22:55:30.290Z,99047.96
2023-12-15T22:58:02.376Z,99055.33
2023-12-15T23:00:36.488Z,99051.02
2023-12-15T23:03:09.347Z,99041.54
2023-12-15T23:05:41.561Z,99037.35
2023-12-15T23:08:13.586Z,99040.20
2023-12-15T23:10:45.835Z,99043.16
2023-12-15T23:13:17.811Z,99046.21
2023-12-15T23:15:50.410Z,99043.52
2023-12-15T23:18:22.547Z,99044.20
2023-12-15T23:20:54.698Z,99050.98
2023-12-15T23:23:26.778Z,99059.83
2023-12-15T23:25:58.981Z,99064.63
2023-12-15T23:28:31.087Z,99061.86
2023-12-15T23:31:04.006Z,99060.48
2023-12-15T23:33:36.826Z,99066.75
2023-12-15T23:36:16.467Z,99067.36
2023-12-15T23:38:48.490Z,99068.29
2023-12-15T23:41:20.606Z,99066.84
2023-12-15T23:43:52.632Z,99068.90
2023-12-15T23:46:24.776Z,99076.15
2023-12-15T23:48:57.413Z,99077.66
2023-12-15T23:51:29.474Z,99072.35
2023-12-15T23:54:02.120Z,99072.70
2023-12-15T23:56:34.228Z,99075.86
2023-12-15T23:59:09.341Z,99075.54
